Time;durP1;ratioP1;P1;durP2;ratioP2;P2;SDS_P1;SDS_P2;PMS_P1;PMS_P2;Temp;Humidity;BMP_temperature;BMP_pressure;BME280_temperature;BME280_humidity;BME280_pressure;Samples;Min_cycle;Max_cycle;Signal;HPM_P1;HPM_P2
2021/08/13 00:01:47;;;;;;;;;;;;;;;24.85;41.43;101633.19;5056675;27;96773;-75
2021/08/13 00:04:14;;;;;;;;;;;;;;;24.77;41.61;101624.84;5055305;27;96910;-75
2021/08/13 00:06:42;;;;;;;;;;;;;;;25.01;40.98;101624.69;5055487;27;99102;-74
2021/08/13 00:09:08;;;;;;;;;;;;;;;25.09;40.63;101634.88;5054559;27;98922;-74
2021/08/13 00:11:36;;;;;;;;;;;;;;;25.06;41.19;101630.59;5056522;27;96834;-73
2021/08/13 00:14:02;;;;;;;;;;;;;;;24.91;42.31;101627.31;5055009;27;97120;-74
2021/08/13 00:16:28;;;;;;;;;;;;;;;24.67;44.22;101636.53;5055927;27;98857;-74
2021/08/13 00:18:55;;;;;;;;;;;;;;;24.77;43.45;101640.19;5054614;27;99049;-75
2021/08/13 00:21:21;;;;;;;;;;;;;;;24.83;43.30;101635.13;5055922;27;96901;-74
2021/08/13 00:23:48;;;;;;;;;;;;;;;24.93;43.33;101640.72;5055314;27;96887;-75
2021/08/13 00:26:15;;;;;;;;;;;;;;;24.97;43.24;101639.47;5058026;27;98958;-74
2021/08/13 00:28:41;;;;;;;;;;;;;;;25.09;42.23;101640.28;5052775;27;99340;-74
2021/08/13 00:31:07;;;;;;;;;;;;;;;25.00;42.25;101634.69;5055285;27;96909;-74
2021/08/13 00:33:36;;;;;;;;;;;;;;;25.02;42.02;101640.78;5056609;27;96801;-74
2021/08/13 00:36:03;;;;;;;;;;;;;;;24.93;42.21;101635.31;5057394;27;98895;-75
2021/08/13 00:38:29;;;;;;;;;;;;;;;24.80;42.78;101635.41;5052757;27;98958;-75
2021/08/13 00:40:56;;;;;;;;;;;;;;;24.70;43.22;101636.25;5054994;27;96837;-75
2021/08/13 00:43:23;;;;;;;;;;;;;;;24.82;43.31;101638.81;5054102;27;96985;-74
2021/08/13 00:45:49;;;;;;;;;;;;;;;24.60;43.76;101642.41;5055907;27;98983;-74
2021/08/13 00:48:15;;;;;;;;;;;;;;;24.77;43.58;101641.03;5054867;27;98853;-74
2021/08/13 00:50:43;;;;;;;;;;;;;;;24.64;44.04;101645.72;5051359;27;97201;-74
2021/08/13 00:53:10;;;;;;;;;;;;;;;24.54;44.31;101645.63;5056414;27;97385;-74
2021/08/13 00:55:36;;;;;;;;;;;;;;;24.55;44.20;101646.44;5053942;27;99450;-75
2021/08/13 00:58:04;;;;;;;;;;;;;;;24.70;44.03;101637.13;5055983;27;98839;-74
2021/08/13 01:00:32;;;;;;;;;;;;;;;24.57;42.46;101633.69;5054410;27;97055;-74
2021/08/13 01:02:58;;;;;;;;;;;;;;;24.71;42.78;101629.88;5054833;27;97003;-74
2021/08/13 01:05:24;;;;;;;;;;;;;;;24.79;42.65;101635.53;5052930;27;98938;-74
2021/08/13 01:07:50;;;;;;;;;;;;;;;24.86;42.64;101625.94;5054222;27;98760;-76
2021/08/13 01:10:17;;;;;;;;;;;;;;;24.93;42.53;101633.47;5052621;27;96988;-73
2021/08/13 01:12:49;;;;;;;;;;;;;;;24.94;42.24;101623.50;5054949;27;96850;-73
2021/08/13 01:15:18;;;;;;;;;;;;;;;24.59;43.35;101624.50;5051219;27;99339;-74
2021/08/13 01:17:46;;;;;;;;;;;;;;;24.69;43.89;101621.03;5045254;27;99221;-74
2021/08/13 01:20:23;;;;;;;;;;;;;;;24.52;45.08;101625.09;5053423;27;96845;-75
2021/08/13 01:22:53;;;;;;;;;;;;;;;24.44;45.71;101623.00;5057348;27;96970;-74
2021/08/13 01:25:21;;;;;;;;;;;;;;;24.48;45.64;101613.66;5063271;27;98461;-74
2021/08/13 01:27:48;;;;;;;;;;;;;;;24.67;44.82;101617.59;5068353;27;97724;-74
2021/08/13 01:30:16;;;;;;;;;;;;;;;24.69;44.57;101621.03;5061537;27;96974;-74
2021/08/13 01:32:46;;;;;;;;;;;;;;;24.62;44.48;101621.53;5057085;27;96883;-73
2021/08/13 01:35:13;;;;;;;;;;;;;;;24.76;44.08;101616.84;5057656;27;99218;-75
2021/08/13 01:37:45;;;;;;;;;;;;;;;24.67;44.33;101621.16;5058918;27;99358;-73
2021/08/13 01:40:14;;;;;;;;;;;;;;;24.64;44.72;101621.41;5055945;27;97196;-74
2021/08/13 01:42:41;;;;;;;;;;;;;;;24.68;44.47;101609.34;5060628;27;97435;-75
2021/08/13 01:45:10;;;;;;;;;;;;;;;24.69;44.54;101610.22;5055175;27;99011;-73
2021/08/13 01:47:37;;;;;;;;;;;;;;;24.58;44.60;101605.69;5047790;27;98828;-74
2021/08/13 01:50:05;;;;;;;;;;;;;;;24.73;44.40;101611.69;5059710;27;96641;-73
2021/08/13 01:52:32;;;;;;;;;;;;;;;24.65;44.39;101604.22;5066505;27;96766;-74
2021/08/13 01:54:58;;;;;;;;;;;;;;;24.70;44.30;101602.00;5058428;27;98095;-75
2021/08/13 01:57:25;;;;;;;;;;;;;;;24.66;44.31;101603.22;5059717;27;97931;-75
2021/08/13 01:59:52;;;;;;;;;;;;;;;24.67;44.05;101602.25;5057582;27;97199;-73
2021/08/13 02:02:19;;;;;;;;;;;;;;;24.67;43.80;101602.25;5059278;27;96842;-74
2021/08/13 02:04:45;;;;;;;;;;;;;;;24.58;43.61;101600.28;5057308;27;97830;-74
2021/08/13 02:07:14;;;;;;;;;;;;;;;24.44;44.03;101603.22;5047552;27;97989;-73
2021/08/13 02:09:40;;;;;;;;;;;;;;;24.56;43.59;101608.50;5053318;27;96811;-74
2021/08/13 02:12:07;;;;;;;;;;;;;;;24.66;43.88;101605.94;5053190;27;97205;-73
2021/08/13 02:14:33;;;;;;;;;;;;;;;24.66;44.04;101605.06;5050260;27;99019;-74
2021/08/13 02:17:00;;;;;;;;;;;;;;;24.56;44.49;101604.94;5054338;27;97782;-73
2021/08/13 02:19:30;;;;;;;;;;;;;;;24.40;45.88;101604.47;5049398;27;97344;-74
2021/08/13 02:21:57;;;;;;;;;;;;;;;24.34;46.05;101607.66;5054826;27;96948;-74
2021/08/13 02:24:24;;;;;;;;;;;;;;;24.35;46.10;101610.22;5053388;27;98928;-75
2021/08/13 02:26:51;;;;;;;;;;;;;;;24.40;45.96;101609.88;5054007;27;98907;-74
2021/08/13 02:29:17;;;;;;;;;;;;;;;24.44;45.83;101612.19;5048628;27;96866;-75
2021/08/13 02:31:44;;;;;;;;;;;;;;;24.48;45.68;101613.66;5054719;27;96862;-75
2021/08/13 02:34:10;;;;;;;;;;;;;;;24.44;45.43;101614.03;5052668;27;99012;-74
2021/08/13 02:36:40;;;;;;;;;;;;;;;24.31;45.19;101606.06;5047543;27;98779;-74
2021/08/13 02:39:08;;;;;;;;;;;;;;;24.33;44.76;101605.94;5053053;27;97238;-74
2021/08/13 02:41:36;;;;;;;;;;;;;;;24.36;44.36;101608.38;5054007;27;97308;-74
2021/08/13 02:44:04;;;;;;;;;;;;;;;24.36;45.08;101608.38;5051857;27;98843;-73
2021/08/13 02:46:32;;;;;;;;;;;;;;;24.32;45.48;101609.63;5053334;27;99024;-75
2021/08/13 02:49:00;;;;;;;;;;;;;;;24.25;46.11;101606.53;5050933;27;97149;-74
2021/08/13 02:51:28;;;;;;;;;;;;;;;24.38;46.05;101601.88;5054008;27;96823;-74
2021/08/13 02:53:55;;;;;;;;;;;;;;;24.48;45.21;101604.72;5051858;27;98902;-74
2021/08/13 02:56:25;;;;;;;;;;;;;;;24.45;45.68;101603.13;5054269;27;99177;-73
2021/08/13 02:58:55;;;;;;;;;;;;;;;24.43;45.37;101613.19;5053365;27;97454;-74
2021/08/13 03:01:24;;;;;;;;;;;;;;;24.42;45.25;101613.28;5052484;27;97836;-74
2021/08/13 03:03:52;;;;;;;;;;;;;;;24.28;46.16;101617.13;5046729;27;99337;-74
2021/08/13 03:06:19;;;;;;;;;;;;;;;24.38;46.08;101618.09;5051182;27;98865;-73
2021/08/13 03:08:46;;;;;;;;;;;;;;;24.29;46.13;101621.50;5052585;27;97720;-74
2021/08/13 03:11:13;;;;;;;;;;;;;;;24.28;46.06;101616.25;5053628;27;98852;-74
2021/08/13 03:13:40;;;;;;;;;;;;;;;24.25;46.29;101622.75;5052470;27;98886;-73
2021/08/13 03:16:08;;;;;;;;;;;;;;;24.31;46.09;101621.41;5053389;27;98811;-74
2021/08/13 03:18:35;;;;;;;;;;;;;;;24.32;45.73;101620.41;5050075;27;97419;-75
2021/08/13 03:21:01;;;;;;;;;;;;;;;24.45;45.35;101619.31;5054748;27;97101;-74
2021/08/13 03:23:28;;;;;;;;;;;;;;;24.45;45.16;101613.06;5053196;27;99315;-75
2021/08/13 03:25:54;;;;;;;;;;;;;;;24.53;44.98;101611.47;5054480;27;98821;-74
2021/08/13 03:28:20;;;;;;;;;;;;;;;24.47;45.07;101606.56;5057818;27;97065;-73
2021/08/13 03:30:46;;;;;;;;;;;;;;;24.28;44.21;101606.31;5053911;27;97182;-73
2021/08/13 03:33:15;;;;;;;;;;;;;;;24.45;43.82;101610.34;5054706;27;99242;-74
2021/08/13 03:35:42;;;;;;;;;;;;;;;24.52;44.41;101614.28;5059017;27;98066;-74
2021/08/13 03:38:08;;;;;;;;;;;;;;;24.38;45.00;101609.13;5042229;27;96932;-74
2021/08/13 03:40:34;;;;;;;;;;;;;;;24.33;45.58;101611.34;5049827;27;97391;-74
2021/08/13 03:43:01;;;;;;;;;;;;;;;24.26;46.06;101610.09;5054066;27;99222;-74
2021/08/13 03:45:27;;;;;;;;;;;;;;;24.20;46.74;101617.72;5054552;27;98917;-75
2021/08/13 03:47:53;;;;;;;;;;;;;;;24.18;45.38;101622.34;5054105;27;96849;-74
2021/08/13 03:50:21;;;;;;;;;;;;;;;24.20;44.65;101616.84;5052948;27;96945;-74
2021/08/13 03:52:47;;;;;;;;;;;;;;;24.44;44.46;101616.75;5053401;27;98124;-73
2021/08/13 03:55:14;;;;;;;;;;;;;;;24.51;44.09;101617.97;5051219;27;98847;-74
2021/08/13 03:57:40;;;;;;;;;;;;;;;24.49;43.92;101619.91;5054001;27;96803;-74
2021/08/13 04:00:07;;;;;;;;;;;;;;;24.46;44.01;101606.69;5054925;27;97267;-74
2021/08/13 04:02:33;;;;;;;;;;;;;;;24.58;44.08;101609.25;5054735;27;98822;-75
2021/08/13 04:05:00;;;;;;;;;;;;;;;24.61;44.26;101610.84;5045562;27;98819;-74
2021/08/13 04:07:27;;;;;;;;;;;;;;;24.70;43.00;101601.13;5055324;27;97235;-74
2021/08/13 04:09:53;;;;;;;;;;;;;;;24.75;43.41;101607.00;5053232;27;96882;-75
2021/08/13 04:12:20;;;;;;;;;;;;;;;24.63;43.05;101604.31;5056952;27;99065;-75
2021/08/13 04:14:46;;;;;;;;;;;;;;;24.73;42.75;101617.97;5052079;27;98926;-73
2021/08/13 04:17:12;;;;;;;;;;;;;;;24.77;42.36;101613.16;5052242;27;96829;-74
2021/08/13 04:19:41;;;;;;;;;;;;;;;24.82;42.53;101610.94;5051815;27;97591;-74
2021/08/13 04:22:07;;;;;;;;;;;;;;;24.84;42.08;101608.97;5052851;27;98963;-74
2021/08/13 04:24:35;;;;;;;;;;;;;;;24.87;42.30;101604.19;5051665;27;99120;-74
2021/08/13 04:27:01;;;;;;;;;;;;;;;24.84;42.33;101601.72;5052567;27;96850;-75
2021/08/13 04:29:28;;;;;;;;;;;;;;;24.84;42.30;101607.13;5051568;27;96874;-71
2021/08/13 04:31:54;;;;;;;;;;;;;;;24.94;42.28;101610.81;5052442;27;98946;-74
2021/08/13 04:34:21;;;;;;;;;;;;;;;24.95;42.93;101604.44;5051881;27;98784;-74
2021/08/13 04:36:47;;;;;;;;;;;;;;;24.94;43.21;101608.13;5050678;27;97312;-73
2021/08/13 04:39:17;;;;;;;;;;;;;;;24.83;42.96;101608.09;5039855;27;97308;-74
2021/08/13 04:41:44;;;;;;;;;;;;;;;24.91;42.70;101605.69;5055574;27;98753;-73
2021/08/13 04:44:11;;;;;;;;;;;;;;;24.73;43.43;101614.41;5055844;27;98812;-74
2021/08/13 04:46:37;;;;;;;;;;;;;;;24.88;42.53;101614.00;5055425;27;96870;-73
2021/08/13 04:49:03;;;;;;;;;;;;;;;24.75;42.43;101613.28;5056203;27;97207;-73
2021/08/13 04:51:29;;;;;;;;;;;;;;;24.58;42.87;101609.25;5055116;27;102518;-73
2021/08/13 04:53:56;;;;;;;;;;;;;;;24.48;43.51;101613.66;5054857;27;98987;-75
2021/08/13 04:56:22;;;;;;;;;;;;;;;24.76;42.37;101620.41;5055943;27;96800;-73
2021/08/13 04:58:52;;;;;;;;;;;;;;;24.82;42.13;101610.94;5054930;27;98290;-74
2021/08/13 05:01:18;;;;;;;;;;;;;;;24.89;42.29;101614.84;5053715;27;99164;-75
2021/08/13 05:03:44;;;;;;;;;;;;;;;24.90;42.21;101614.78;5056930;27;98241;-73
2021/08/13 05:06:11;;;;;;;;;;;;;;;24.88;42.39;101618.53;5057186;27;96813;-74
2021/08/13 05:08:38;;;;;;;;;;;;;;;24.72;42.78;101610.84;5056933;27;96976;-73
2021/08/13 05:11:05;;;;;;;;;;;;;;;24.94;42.09;101616.22;5054894;27;98727;-74
2021/08/13 05:13:31;;;;;;;;;;;;;;;24.90;42.44;101617.47;5055454;27;98796;-74
2021/08/13 05:15:59;;;;;;;;;;;;;;;24.85;42.41;101613.41;5055858;27;97833;-74
2021/08/13 05:18:25;;;;;;;;;;;;;;;25.12;42.19;101602.19;5055677;27;97188;-74
2021/08/13 05:20:51;;;;;;;;;;;;;;;25.13;41.88;101604.78;5053455;27;98951;-74
2021/08/13 05:23:17;;;;;;;;;;;;;;;25.23;41.86;101607.56;5055703;27;98925;-72
2021/08/13 05:25:44;;;;;;;;;;;;;;;25.21;41.96;101612.22;5054413;27;98837;-73
2021/08/13 05:28:10;;;;;;;;;;;;;;;25.09;42.40;101613.25;5057705;27;98973;-75
2021/08/13 05:30:36;;;;;;;;;;;;;;;24.95;42.52;101615.25;5048401;27;97855;-73
2021/08/13 05:33:04;;;;;;;;;;;;;;;24.87;42.98;101620.41;5049524;27;98902;-74
2021/08/13 05:35:30;;;;;;;;;;;;;;;24.90;43.21;101614.78;5053169;27;97438;-73
2021/08/13 05:37:58;;;;;;;;;;;;;;;24.99;43.13;101614.03;5048245;27;98891;-72
2021/08/13 05:40:24;;;;;;;;;;;;;;;24.93;42.82;101619.09;5049569;27;98173;-73
2021/08/13 05:42:51;;;;;;;;;;;;;;;24.71;43.57;101614.53;5049266;27;100909;-74
2021/08/13 05:45:17;;;;;;;;;;;;;;;24.57;44.36;101618.34;5051986;27;96921;-75
2021/08/13 05:47:44;;;;;;;;;;;;;;;24.75;43.83;101625.94;5054354;27;96784;-75
2021/08/13 05:50:15;;;;;;;;;;;;;;;24.93;43.95;101619.09;5050349;27;99049;-75
2021/08/13 05:52:43;;;;;;;;;;;;;;;24.93;43.67;101616.38;5049777;27;101458;-74
2021/08/13 05:55:10;;;;;;;;;;;;;;;25.32;42.78;101618.47;5047800;27;97814;-73
2021/08/13 05:57:36;;;;;;;;;;;;;;;25.62;42.46;101622.31;5049539;27;96938;-75
2021/08/13 06:00:03;;;;;;;;;;;;;;;25.49;42.16;101629.72;5050705;27;98969;-74
2021/08/13 06:02:29;;;;;;;;;;;;;;;25.96;41.26;101623.84;5048569;27;98859;-75
2021/08/13 06:04:56;;;;;;;;;;;;;;;25.93;41.21;101624.09;5053864;27;97777;-73
2021/08/13 06:07:23;;;;;;;;;;;;;;;26.16;40.58;101631.09;5051881;27;97491;-73
2021/08/13 06:09:50;;;;;;;;;;;;;;;26.28;40.71;101621.06;5047472;27;98880;-73
2021/08/13 06:12:16;;;;;;;;;;;;;;;26.64;39.82;101613.41;5048206;27;99518;-73
2021/08/13 06:14:42;;;;;;;;;;;;;;;26.63;39.76;101615.25;5049099;27;97781;-73
2021/08/13 06:17:08;;;;;;;;;;;;;;;26.71;39.73;101622.72;5049784;27;98803;-74
2021/08/13 06:19:35;;;;;;;;;;;;;;;26.90;39.43;101618.22;5051149;27;98274;-75
2021/08/13 06:22:01;;;;;;;;;;;;;;;26.89;39.47;101621.94;5048089;27;98856;-75
2021/08/13 06:24:28;;;;;;;;;;;;;;;26.78;39.58;101623.88;5050496;27;99243;-74
2021/08/13 06:26:55;;;;;;;;;;;;;;;26.83;39.50;101614.31;5050500;27;97903;-74
2021/08/13 06:29:21;;;;;;;;;;;;;;;26.93;39.29;101619.78;5048331;27;99349;-75
2021/08/13 06:31:48;;;;;;;;;;;;;;;26.91;39.31;101611.78;5048187;27;99103;-74
2021/08/13 06:34:17;;;;;;;;;;;;;;;27.04;39.51;101619.69;5052200;27;97271;-74
2021/08/13 06:36:43;;;;;;;;;;;;;;;27.45;38.49;101634.00;5048416;27;98496;-73
2021/08/13 06:39:09;;;;;;;;;;;;;;;27.44;38.70;101635.03;5052659;27;98836;-73
2021/08/13 06:41:37;;;;;;;;;;;;;;;27.79;38.00;101632.59;5058914;27;96850;-74
2021/08/13 06:44:03;;;;;;;;;;;;;;;28.21;37.27;101637.72;5052723;27;96718;-76
2021/08/13 06:46:30;;;;;;;;;;;;;;;28.20;37.56;101636.84;5045784;27;97343;-74
2021/08/13 06:48:56;;;;;;;;;;;;;;;28.13;37.38;101633.84;5048352;27;99805;-74
2021/08/13 06:51:22;;;;;;;;;;;;;;;28.10;37.80;101625.09;5049068;27;98907;-73
2021/08/13 06:53:48;;;;;;;;;;;;;;;28.14;37.42;101618.44;5048063;27;96953;-73
2021/08/13 06:56:15;;;;;;;;;;;;;;;28.20;37.80;101626.00;5047941;27;97151;-75
2021/08/13 06:58:42;;;;;;;;;;;;;;;28.37;37.25;101618.91;5047467;27;98866;-74
2021/08/13 07:01:09;;;;;;;;;;;;;;;29.38;35.70;101618.84;5050591;27;98772;-73
2021/08/13 07:03:35;;;;;;;;;;;;;;;29.96;34.32;101629.22;5048885;27;97038;-73
2021/08/13 07:06:01;;;;;;;;;;;;;;;30.01;34.45;101635.06;5047667;27;97050;-74
2021/08/13 07:08:28;;;;;;;;;;;;;;;29.18;35.46;101634.41;5048931;27;98882;-74
2021/08/13 07:10:54;;;;;;;;;;;;;;;29.05;36.09;101627.63;5046167;27;98965;-74
2021/08/13 07:13:20;;;;;;;;;;;;;;;28.98;36.03;101626.53;5052046;27;97395;-74
2021/08/13 07:15:48;;;;;;;;;;;;;;;29.18;35.53;101626.25;5046842;27;98906;-76
2021/08/13 07:18:14;;;;;;;;;;;;;;;29.06;36.15;101626.63;5049510;27;99489;-74
2021/08/13 07:20:41;;;;;;;;;;;;;;;29.07;36.31;101631.06;5048176;27;98832;-72
2021/08/13 07:23:07;;;;;;;;;;;;;;;29.34;35.90;101631.06;5047918;27;97760;-74
2021/08/13 07:25:33;;;;;;;;;;;;;;;29.08;36.31;101632.78;5046752;27;97308;-74
2021/08/13 07:27:59;;;;;;;;;;;;;;;29.80;35.49;101629.91;5049652;27;99231;-74
2021/08/13 07:30:26;;;;;;;;;;;;;;;30.13;34.36;101631.06;5049857;27;101773;-74
2021/08/13 07:32:53;;;;;;;;;;;;;;;31.02;33.30;101628.81;5048743;27;96915;-72
2021/08/13 07:35:20;;;;;;;;;;;;;;;30.43;33.64;101630.56;5045201;27;97520;-74
2021/08/13 07:37:46;;;;;;;;;;;;;;;30.33;34.26;101632.53;5045321;27;99639;-74
2021/08/13 07:40:12;;;;;;;;;;;;;;;31.09;32.55;101634.50;5051441;27;98777;-74
2021/08/13 07:42:40;;;;;;;;;;;;;;;30.92;33.35;101625.34;5049207;27;97008;-74
2021/08/13 07:45:07;;;;;;;;;;;;;;;30.25;34.80;101632.53;5047144;27;97927;-76
2021/08/13 07:47:33;;;;;;;;;;;;;;;29.99;34.85;101623.47;5048565;27;99710;-74
2021/08/13 07:50:01;;;;;;;;;;;;;;;29.88;35.13;101632.72;5049326;27;99173;-75
2021/08/13 07:52:28;;;;;;;;;;;;;;;30.08;34.59;101630.69;5048602;27;97036;-74
2021/08/13 07:54:54;;;;;;;;;;;;;;;30.30;34.26;101629.31;5048392;27;98438;-72
2021/08/13 07:57:21;;;;;;;;;;;;;;;30.05;34.53;101628.28;5046943;27;99093;-74
2021/08/13 07:59:47;;;;;;;;;;;;;;;30.13;34.64;101624.78;5046338;27;98964;-73
2021/08/13 08:02:13;;;;;;;;;;;;;;;30.45;34.25;101624.97;5038480;27;98606;-73
2021/08/13 08:04:40;;;;;;;;;;;;;;;30.36;34.28;101621.34;5044477;27;101192;-74
2021/08/13 08:07:07;;;;;;;;;;;;;;;30.56;33.74;101621.97;5045009;27;98981;-74
2021/08/13 08:09:33;;;;;;;;;;;;;;;30.61;33.82;101619.59;5049446;27;98668;-74
2021/08/13 08:12:00;;;;;;;;;;;;;;;30.65;33.24;101618.28;5049262;27;99663;-74
2021/08/13 08:14:26;;;;;;;;;;;;;;;30.83;33.53;101616.31;5053207;27;98806;-74
2021/08/13 08:16:52;;;;;;;;;;;;;;;30.72;33.96;101615.75;5046295;27;98945;-74
2021/08/13 08:19:18;;;;;;;;;;;;;;;30.81;33.22;101615.59;5052036;27;98836;-74
2021/08/13 08:21:45;;;;;;;;;;;;;;;30.97;33.01;101627.59;5052814;27;99379;-75
2021/08/13 08:24:13;;;;;;;;;;;;;;;30.96;32.65;101618.56;5051797;27;97277;-74
2021/08/13 08:26:39;;;;;;;;;;;;;;;30.98;32.56;101615.66;5047602;27;99593;-74
2021/08/13 08:29:06;;;;;;;;;;;;;;;31.10;31.93;101620.69;5050373;27;99301;-74
2021/08/13 08:31:32;;;;;;;;;;;;;;;31.20;32.21;101615.91;5053935;27;96719;-74
2021/08/13 08:33:58;;;;;;;;;;;;;;;31.17;32.32;101613.53;5053294;27;98087;-74
2021/08/13 08:36:24;;;;;;;;;;;;;;;31.25;31.70;101623.59;5052256;27;99003;-72
2021/08/13 08:38:51;;;;;;;;;;;;;;;31.36;31.55;101636.09;5051963;27;98830;-73
2021/08/13 08:41:18;;;;;;;;;;;;;;;31.46;30.98;101632.16;5052199;27;96857;-73
2021/08/13 08:43:44;;;;;;;;;;;;;;;31.44;31.20;101631.47;5046143;27;97561;-73
2021/08/13 08:46:11;;;;;;;;;;;;;;;31.48;31.56;101635.59;5050668;27;98581;-74
2021/08/13 08:48:39;;;;;;;;;;;;;;;31.62;30.81;101631.38;5054311;27;98765;-73
2021/08/13 08:51:06;;;;;;;;;;;;;;;31.72;30.54;101634.78;5050114;27;98676;-73
2021/08/13 08:53:33;;;;;;;;;;;;;;;31.86;30.81;101633.22;5061149;27;96850;-73
2021/08/13 08:56:00;;;;;;;;;;;;;;;31.79;30.96;101627.59;5047409;27;98852;-74
2021/08/13 08:58:30;;;;;;;;;;;;;;;31.56;31.19;101623.81;5050502;27;99241;-74
2021/08/13 09:00:56;;;;;;;;;;;;;;;31.75;31.07;101626.25;5050896;27;97181;-74
2021/08/13 09:03:24;;;;;;;;;;;;;;;31.77;31.05;101621.44;5050879;27;97204;-75
2021/08/13 09:05:50;;;;;;;;;;;;;;;31.87;31.29;101622.13;5056928;27;97849;-74
2021/08/13 09:08:17;;;;;;;;;;;;;;;31.95;30.96;101619.41;5049147;27;98879;-74
2021/08/13 09:10:43;;;;;;;;;;;;;;;32.04;30.69;101614.75;5045458;27;96850;-74
2021/08/13 09:13:10;;;;;;;;;;;;;;;32.17;30.88;101614.25;5050334;27;97578;-73
2021/08/13 09:15:38;;;;;;;;;;;;;;;31.80;31.31;101618.38;5047686;27;99441;-74
2021/08/13 09:18:12;;;;;;;;;;;;;;;31.98;31.20;101624.50;5045542;27;99127;-74
2021/08/13 09:20:38;;;;;;;;;;;;;;;32.08;31.25;101632.53;5052878;27;96781;-74
2021/08/13 09:23:05;;;;;;;;;;;;;;;32.17;30.75;101636.97;5045602;27;98413;-75
2021/08/13 09:25:32;;;;;;;;;;;;;;;32.22;30.75;101636.47;5048696;27;99047;-73
2021/08/13 09:27:58;;;;;;;;;;;;;;;32.39;30.08;101636.25;5048178;27;98917;-74
2021/08/13 09:30:24;;;;;;;;;;;;;;;32.30;29.89;101631.81;5054549;27;96778;-74
2021/08/13 09:32:59;;;;;;;;;;;;;;;32.35;29.91;101631.31;5045285;27;97040;-73
2021/08/13 09:35:30;;;;;;;;;;;;;;;32.18;30.17;101633.22;5044278;27;99260;-74
2021/08/13 09:37:56;;;;;;;;;;;;;;;32.11;29.92;101628.59;5051391;27;98851;-74
2021/08/13 09:40:22;;;;;;;;;;;;;;;31.90;30.26;101632.72;5043338;27;99075;-74
2021/08/13 09:42:49;;;;;;;;;;;;;;;31.83;30.27;101625.41;5049237;27;96919;-73
2021/08/13 09:45:15;;;;;;;;;;;;;;;31.62;30.68;101617.72;5048530;27;98919;-73
2021/08/13 09:47:42;;;;;;;;;;;;;;;31.51;30.76;101618.00;5048459;27;98795;-74
2021/08/13 09:50:10;;;;;;;;;;;;;;;31.63;31.10;101624.88;5047522;27;96992;-74
2021/08/13 09:52:37;;;;;;;;;;;;;;;31.77;31.13;101617.88;5050013;27;97079;-74
2021/08/13 09:55:11;;;;;;;;;;;;;;;31.86;30.83;101609.50;5051293;27;98862;-74
2021/08/13 09:57:42;;;;;;;;;;;;;;;32.21;30.38;101600.09;5049446;27;99303;-74
2021/08/13 10:00:09;;;;;;;;;;;;;;;31.69;30.92;101601.50;5045286;27;98799;-74
2021/08/13 10:02:38;;;;;;;;;;;;;;;31.91;30.68;101598.88;5050847;27;98595;-74
2021/08/13 10:05:16;;;;;;;;;;;;;;;32.33;30.16;101609.63;5048048;27;99060;-74
2021/08/13 10:07:49;;;;;;;;;;;;;;;32.18;30.50;101599.56;5046077;27;99412;-74
2021/08/13 10:10:16;;;;;;;;;;;;;;;32.25;30.73;101616.97;5046121;27;97926;-74
2021/08/13 10:12:43;;;;;;;;;;;;;;;32.42;30.21;101607.72;5049252;27;96933;-73
2021/08/13 10:15:09;;;;;;;;;;;;;;;32.43;30.27;101606.66;5045039;27;98985;-75
2021/08/13 10:17:36;;;;;;;;;;;;;;;32.47;30.30;101601.72;5050099;27;99051;-72
2021/08/13 10:20:02;;;;;;;;;;;;;;;32.59;29.57;101603.88;5051531;27;96821;-75
2021/08/13 10:22:29;;;;;;;;;;;;;;;32.52;30.00;101596.56;5049526;27;96864;-75
2021/08/13 10:24:57;;;;;;;;;;;;;;;31.98;30.87;101604.53;5048198;27;99197;-73
2021/08/13 10:27:24;;;;;;;;;;;;;;;32.35;29.91;101617.66;5049610;27;99177;-74
2021/08/13 10:29:50;;;;;;;;;;;;;;;32.51;29.85;101611.25;5047111;27;97165;-73
2021/08/13 10:32:18;;;;;;;;;;;;;;;32.56;29.28;101606.13;5047804;27;97701;-73
2021/08/13 10:34:45;;;;;;;;;;;;;;;32.51;30.00;101594.84;5048483;27;98910;-75
2021/08/13 10:37:12;;;;;;;;;;;;;;;32.50;29.70;101590.41;5048731;27;98102;-74
2021/08/13 10:39:40;;;;;;;;;;;;;;;32.05;30.61;101600.94;5053383;27;97632;-74
2021/08/13 10:42:09;;;;;;;;;;;;;;;32.04;30.90;101603.81;5052574;27;98793;-73
2021/08/13 10:44:39;;;;;;;;;;;;;;;32.15;30.75;101598.03;5048239;27;99610;-73
2021/08/13 10:47:16;;;;;;;;;;;;;;;32.49;30.03;101597.78;5049410;27;98830;-73
2021/08/13 10:49:45;;;;;;;;;;;;;;;32.40;30.51;101598.81;5050212;27;97112;-75
2021/08/13 10:52:11;;;;;;;;;;;;;;;32.63;29.98;101594.28;5052563;27;97305;-73
2021/08/13 10:54:40;;;;;;;;;;;;;;;32.24;30.53;101602.44;5053123;27;98993;-73
2021/08/13 10:57:08;;;;;;;;;;;;;;;32.49;30.08;101606.00;5052901;27;97848;-73
2021/08/13 10:59:54;;;;;;;;;;;;;;;32.61;29.84;101593.63;5054299;27;96863;-74
2021/08/13 11:02:20;;;;;;;;;;;;;;;32.68;29.68;101591.06;5053513;27;98336;-74
2021/08/13 11:04:47;;;;;;;;;;;;;;;32.61;29.59;101590.03;5053330;27;98849;-75
2021/08/13 11:07:35;;;;;;;;;;;;;;;32.10;30.42;101581.25;5052027;27;104653;-73
2021/08/13 11:10:01;;;;;;;;;;;;;;;32.58;29.94;101584.91;5053684;27;96824;-74
2021/08/13 11:12:29;;;;;;;;;;;;;;;32.55;30.24;101586.13;5053755;27;98049;-73
2021/08/13 11:14:58;;;;;;;;;;;;;;;32.48;30.06;101587.84;5056422;27;98918;-75
2021/08/13 11:17:32;;;;;;;;;;;;;;;32.54;29.55;101586.28;5053737;27;98920;-73
2021/08/13 11:19:59;;;;;;;;;;;;;;;32.77;30.17;101584.50;5053852;27;96839;-73
2021/08/13 11:22:29;;;;;;;;;;;;;;;32.99;29.75;101597.38;5053990;27;97142;-74
2021/08/13 11:24:55;;;;;;;;;;;;;;;33.07;29.28;101580.06;5052540;27;99305;-74
2021/08/13 11:27:24;;;;;;;;;;;;;;;33.19;29.43;101578.63;5048487;27;99201;-74
2021/08/13 11:29:55;;;;;;;;;;;;;;;32.95;29.61;101574.13;5054111;27;97082;-74
2021/08/13 11:32:23;;;;;;;;;;;;;;;32.42;30.79;101577.63;5054348;27;97065;-74
2021/08/13 11:34:55;;;;;;;;;;;;;;;32.72;29.84;101571.34;5045801;27;99141;-74
2021/08/13 11:37:41;;;;;;;;;;;;;;;32.77;30.16;101562.59;5054048;27;98135;-74
2021/08/13 11:40:28;;;;;;;;;;;;;;;32.79;30.20;101560.53;5049077;27;97166;-73
2021/08/13 11:42:55;;;;;;;;;;;;;;;32.95;29.80;101559.63;5053577;27;98011;-74
2021/08/13 11:45:34;;;;;;;;;;;;;;;32.95;29.57;101559.63;5046983;27;99268;-74
2021/08/13 11:48:02;;;;;;;;;;;;;;;32.92;28.88;101554.47;5053617;27;98855;-74
2021/08/13 11:50:29;;;;;;;;;;;;;;;33.17;29.33;101548.66;5056042;27;96830;-75
2021/08/13 11:52:55;;;;;;;;;;;;;;;33.41;29.11;101550.38;5053857;27;97077;-74
2021/08/13 11:55:23;;;;;;;;;;;;;;;33.52;29.36;101546.38;5050738;27;98166;-74
2021/08/13 11:57:51;;;;;;;;;;;;;;;33.42;28.86;101552.09;5047676;27;100824;-75
2021/08/13 12:00:24;;;;;;;;;;;;;;;33.57;29.04;101555.72;5057469;27;96835;-75
2021/08/13 12:02:58;;;;;;;;;;;;;;;33.42;29.46;101549.34;5057067;27;96982;-74
2021/08/13 12:05:27;;;;;;;;;;;;;;;33.38;29.05;101539.81;5056475;27;99094;-75
2021/08/13 12:07:57;;;;;;;;;;;;;;;31.98;30.94;101538.91;5058617;27;98905;-74
2021/08/13 12:10:27;;;;;;;;;;;;;;;32.68;30.16;101542.66;5056928;27;97273;-75
2021/08/13 12:12:56;;;;;;;;;;;;;;;33.38;29.31;101545.28;5056970;27;97092;-75
2021/08/13 12:15:40;;;;;;;;;;;;;;;33.77;27.89;101544.28;5057613;27;98887;-75
2021/08/13 12:18:08;;;;;;;;;;;;;;;34.10;27.87;101553.84;5053228;27;99115;-73
2021/08/13 12:20:48;;;;;;;;;;;;;;;34.31;27.15;101550.38;5057226;27;96887;-74
2021/08/13 12:23:14;;;;;;;;;;;;;;;34.38;27.18;101548.59;5052651;27;97007;-74
2021/08/13 12:25:42;;;;;;;;;;;;;;;34.53;27.03;101551.31;5056151;27;98958;-74
2021/08/13 12:28:08;;;;;;;;;;;;;;;34.69;27.11;101545.59;5056875;27;97795;-74
2021/08/13 12:30:35;;;;;;;;;;;;;;;34.07;27.48;101548.72;5056130;27;96936;-75
2021/08/13 12:33:04;;;;;;;;;;;;;;;34.04;27.93;101538.16;5054680;27;98268;-74
2021/08/13 12:35:39;;;;;;;;;;;;;;;34.62;27.61;101539.16;5054861;27;98896;-75
2021/08/13 12:38:06;;;;;;;;;;;;;;;34.77;26.73;101537.28;5053498;27;99004;-73